KDEW

Deer Park Airport

Deer Park, Washington, USA
METAR KDEW 250453Z AUTO 16004KT 10SM CLR 15/12 A2993 RMK AO2 SLP128 T01500122 $
Observed Flight Rules
May-25 @ 04:53 UTC (33 minutes ago) Visual Flight Rules
Wind Visibility Clouds
160° at 4 knots 10 miles
  • Clear skies
Temperatures Readings
Current 15°C / 59°F
Dewpoint 12°C / 54°F
Humidity 82%
Altimeter 29.93" Hg
Pressure 1012.8 hPa
Elevation 674
METAR KDEW 250453Z AUTO 16004KT 10SM CLR 15/12 A2993 RMK AO2 SLP128 T01500122 $
Observed Flight Rules
May-25 @ 04:53 UTC
(33 minutes ago)
VFR
Wind Visibility
160° at 4 knots 10 miles
Clouds
  • Clear skies
Temperature Dewpoint
15°C / 59°F 12°C / 54°F
Humidity Altimeter Pressure
82% 29.93" Hg 1012.8 hPa